Time;durP1;ratioP1;P1;durP2;ratioP2;P2;SDS_P1;SDS_P2;PMS_P1;PMS_P2;Temp;Humidity;BMP_temperature;BMP_pressure;BME280_temperature;BME280_humidity;BME280_pressure;Samples;Min_cycle;Max_cycle;Signal;HPM_P1;HPM_P2
2021/10/10 00:00:37;;;;;;;;;;;;;;;20.87;59.03;102843.47;2082824;28;947;-58
2021/10/10 00:01:38;;;;;;;;;;;;;;;20.89;58.69;102844.38;2082883;28;989;-58
2021/10/10 00:02:38;;;;;;;;;;;;;;;20.88;59.40;102847.97;2083554;28;807;-58
2021/10/10 00:03:38;;;;;;;;;;;;;;;20.85;59.20;102840.78;2083415;28;1028;-58
2021/10/10 00:04:38;;;;;;;;;;;;;;;20.84;58.96;102841.66;2083459;28;797;-58
2021/10/10 00:05:38;;;;;;;;;;;;;;;20.88;59.06;102846.16;2083370;28;985;-58
2021/10/10 00:06:38;;;;;;;;;;;;;;;20.87;58.88;102846.19;2083141;28;1049;-58
2021/10/10 00:07:41;;;;;;;;;;;;;;;20.86;59.53;102842.56;2083420;28;831;-58
2021/10/10 00:08:41;;;;;;;;;;;;;;;20.86;58.79;102839.00;2083556;28;872;-58
2021/10/10 00:09:41;;;;;;;;;;;;;;;20.81;59.40;102844.38;2083220;28;1285;-58
2021/10/10 00:10:41;;;;;;;;;;;;;;;20.84;58.58;102838.97;2083486;28;764;-58
2021/10/10 00:11:42;;;;;;;;;;;;;;;20.86;59.49;102839.88;2083269;28;1382;-58
2021/10/10 00:12:42;;;;;;;;;;;;;;;20.84;59.66;102833.59;2083473;28;756;-58
2021/10/10 00:13:42;;;;;;;;;;;;;;;20.88;59.38;102840.75;2083375;28;1922;-58
2021/10/10 00:14:43;;;;;;;;;;;;;;;20.90;58.27;102843.47;2083221;28;1052;-58
2021/10/10 00:15:43;;;;;;;;;;;;;;;20.91;58.26;102838.97;2083391;28;1049;-58
2021/10/10 00:16:43;;;;;;;;;;;;;;;20.86;59.21;102839.88;2083299;28;816;-59
2021/10/10 00:17:43;;;;;;;;;;;;;;;20.88;59.66;102837.19;2083201;28;800;-58
2021/10/10 00:18:43;;;;;;;;;;;;;;;20.92;59.03;102838.94;2083406;28;895;-58
2021/10/10 00:19:44;;;;;;;;;;;;;;;20.91;58.44;102841.66;2083361;28;815;-58
2021/10/10 00:20:44;;;;;;;;;;;;;;;20.82;59.26;102838.09;2083413;28;962;-58
2021/10/10 00:21:44;;;;;;;;;;;;;;;20.85;58.62;102839.91;2083405;28;815;-58
2021/10/10 00:22:44;;;;;;;;;;;;;;;20.86;58.55;102831.78;2083304;28;1020;-59
2021/10/10 00:23:44;;;;;;;;;;;;;;;20.84;59.02;102836.28;2083388;28;776;-58
2021/10/10 00:24:45;;;;;;;;;;;;;;;20.81;58.94;102830.03;2082919;28;811;-58
2021/10/10 00:25:45;;;;;;;;;;;;;;;20.87;58.89;102832.72;2083332;28;859;-58
2021/10/10 00:26:45;;;;;;;;;;;;;;;20.85;59.39;102829.13;2083315;28;986;-59
2021/10/10 00:27:45;;;;;;;;;;;;;;;20.79;60.24;102826.44;2083321;28;791;-58
2021/10/10 00:28:45;;;;;;;;;;;;;;;20.76;59.86;102832.69;2082788;28;835;-59
2021/10/10 00:29:45;;;;;;;;;;;;;;;20.79;59.02;102830.00;2082685;28;1025;-59
2021/10/10 00:30:45;;;;;;;;;;;;;;;20.84;59.28;102830.91;2083175;28;1232;-58
2021/10/10 00:31:46;;;;;;;;;;;;;;;20.84;58.94;102825.50;2083235;28;1245;-58
2021/10/10 00:32:46;;;;;;;;;;;;;;;20.81;59.31;102822.81;2083372;28;840;-58
2021/10/10 00:33:46;;;;;;;;;;;;;;;20.85;59.10;102832.69;2083070;28;1961;-59
2021/10/10 00:34:46;;;;;;;;;;;;;;;20.86;58.87;102825.53;2083324;28;1036;-58
2021/10/10 00:35:46;;;;;;;;;;;;;;;20.90;57.96;102821.00;2083120;28;1048;-59
2021/10/10 00:36:46;;;;;;;;;;;;;;;20.85;58.69;102821.91;2082540;28;1523;-59
2021/10/10 00:37:47;;;;;;;;;;;;;;;20.84;59.42;102825.50;2082688;28;826;-58
2021/10/10 00:38:47;;;;;;;;;;;;;;;20.86;58.70;102826.41;2083235;28;784;-59
2021/10/10 00:39:47;;;;;;;;;;;;;;;20.86;59.20;102820.13;2083235;28;1044;-58
2021/10/10 00:40:47;;;;;;;;;;;;;;;20.84;59.59;102819.25;2083188;28;977;-59
2021/10/10 00:41:48;;;;;;;;;;;;;;;20.84;58.80;102819.25;2083097;28;783;-58
2021/10/10 00:42:48;;;;;;;;;;;;;;;20.86;58.85;102821.00;2083287;28;977;-59
2021/10/10 00:43:48;;;;;;;;;;;;;;;20.86;59.07;102817.44;2082185;28;842;-59
2021/10/10 00:44:48;;;;;;;;;;;;;;;20.84;58.95;102814.75;2083352;28;973;-59
2021/10/10 00:45:49;;;;;;;;;;;;;;;20.85;58.53;102821.91;2083255;28;799;-58
2021/10/10 00:46:49;;;;;;;;;;;;;;;20.88;58.92;102816.53;2083236;28;1021;-59
2021/10/10 00:47:49;;;;;;;;;;;;;;;20.88;58.62;102813.81;2083245;28;846;-59
2021/10/10 00:48:50;;;;;;;;;;;;;;;20.88;59.69;102812.94;2083254;28;843;-59
2021/10/10 00:49:50;;;;;;;;;;;;;;;20.83;59.15;102812.06;2082822;28;957;-59
2021/10/10 00:50:50;;;;;;;;;;;;;;;20.84;59.17;102805.78;2083259;28;1024;-59
2021/10/10 00:51:51;;;;;;;;;;;;;;;20.83;58.85;102803.97;2083184;28;985;-59
2021/10/10 00:52:52;;;;;;;;;;;;;;;20.85;58.83;102808.44;2083143;28;760;-59
2021/10/10 00:53:53;;;;;;;;;;;;;;;20.81;59.26;102806.66;2083108;28;1956;-59
2021/10/10 00:54:54;;;;;;;;;;;;;;;20.83;59.42;102809.38;2083211;28;1039;-59
2021/10/10 00:55:55;;;;;;;;;;;;;;;20.80;59.13;102809.38;2083210;28;1079;-59
2021/10/10 00:56:57;;;;;;;;;;;;;;;20.82;58.39;102808.47;2083273;28;795;-59
2021/10/10 00:57:57;;;;;;;;;;;;;;;20.79;59.94;102803.06;2083171;28;1039;-59
2021/10/10 00:58:58;;;;;;;;;;;;;;;20.78;59.00;102801.28;2083243;28;763;-59
2021/10/10 00:59:59;;;;;;;;;;;;;;;20.78;59.95;102800.41;2083060;28;803;-60
2021/10/10 01:00:59;;;;;;;;;;;;;;;20.82;59.78;102804.88;2083228;28;791;-60
2021/10/10 01:01:59;;;;;;;;;;;;;;;20.82;58.90;102800.38;2083178;28;996;-60
2021/10/10 01:03:00;;;;;;;;;;;;;;;20.80;59.40;102801.31;2083197;28;822;-59
2021/10/10 01:04:01;;;;;;;;;;;;;;;20.77;59.15;102799.50;2083071;28;1126;-59
2021/10/10 01:05:02;;;;;;;;;;;;;;;20.81;58.52;102793.19;2083072;28;965;-59
2021/10/10 01:06:02;;;;;;;;;;;;;;;20.80;58.48;102802.19;2083150;28;870;-59
2021/10/10 01:07:03;;;;;;;;;;;;;;;20.71;59.55;102797.69;2083173;28;966;-59
2021/10/10 01:08:04;;;;;;;;;;;;;;;20.79;58.87;102802.19;2082989;28;978;-58
2021/10/10 01:09:04;;;;;;;;;;;;;;;20.78;59.26;102803.09;2083052;28;1114;-59
2021/10/10 01:10:06;;;;;;;;;;;;;;;20.78;59.27;102795.91;2083018;28;970;-59
2021/10/10 01:11:07;;;;;;;;;;;;;;;20.78;58.47;102801.28;2082783;28;1252;-59
2021/10/10 01:12:07;;;;;;;;;;;;;;;20.76;59.43;102792.28;2083074;28;1036;-59
2021/10/10 01:13:07;;;;;;;;;;;;;;;20.79;59.15;102796.81;2083084;28;1922;-59
2021/10/10 01:14:09;;;;;;;;;;;;;;;20.80;58.73;102795.91;2083090;28;941;-59
2021/10/10 01:15:10;;;;;;;;;;;;;;;20.77;58.98;102794.09;2083019;28;1387;-59
2021/10/10 01:16:10;;;;;;;;;;;;;;;20.77;58.62;102793.19;2082679;28;1721;-59
2021/10/10 01:17:10;;;;;;;;;;;;;;;20.80;58.90;102788.72;2083224;28;791;-59
2021/10/10 01:18:11;;;;;;;;;;;;;;;20.82;58.51;102788.72;2083101;28;1000;-59
2021/10/10 01:19:11;;;;;;;;;;;;;;;20.76;58.77;102789.59;2083169;28;759;-59
2021/10/10 01:20:11;;;;;;;;;;;;;;;20.74;59.40;102792.31;2082445;28;790;-59
2021/10/10 01:21:11;;;;;;;;;;;;;;;20.74;59.49;102789.59;2082652;28;835;-59
2021/10/10 01:22:12;;;;;;;;;;;;;;;20.76;59.51;102786.91;2083059;28;882;-59
2021/10/10 01:23:12;;;;;;;;;;;;;;;20.74;59.45;102788.69;2083108;28;1169;-59
2021/10/10 01:24:12;;;;;;;;;;;;;;;20.69;59.76;102788.72;2082871;28;974;-59
2021/10/10 01:25:12;;;;;;;;;;;;;;;20.73;59.03;102786.91;2083111;28;838;-59
2021/10/10 01:26:12;;;;;;;;;;;;;;;20.72;59.56;102779.72;2083096;28;899;-59
2021/10/10 01:27:13;;;;;;;;;;;;;;;20.73;58.74;102785.13;2083062;28;1013;-59
2021/10/10 01:28:13;;;;;;;;;;;;;;;20.75;58.93;102785.09;2082921;28;1568;-59
2021/10/10 01:29:14;;;;;;;;;;;;;;;20.69;59.77;102786.03;2082967;28;1117;-59
2021/10/10 01:30:14;;;;;;;;;;;;;;;20.72;58.79;102780.63;2083018;28;974;-59
2021/10/10 01:31:14;;;;;;;;;;;;;;;20.78;58.84;102784.25;2083039;28;970;-59
2021/10/10 01:32:14;;;;;;;;;;;;;;;20.76;59.07;102778.81;2082805;28;792;-59
2021/10/10 01:33:15;;;;;;;;;;;;;;;20.75;59.53;102787.78;2082964;28;1951;-59
2021/10/10 01:34:15;;;;;;;;;;;;;;;20.76;59.32;102786.00;2083084;28;839;-59
2021/10/10 01:35:15;;;;;;;;;;;;;;;20.79;58.39;102781.53;2082848;28;966;-59
2021/10/10 01:36:15;;;;;;;;;;;;;;;20.80;58.60;102786.03;2083003;28;1021;-59
2021/10/10 01:37:16;;;;;;;;;;;;;;;20.79;58.92;102781.53;2082904;28;1177;-59
2021/10/10 01:38:17;;;;;;;;;;;;;;;20.81;58.89;102785.13;2082397;28;727;-59
2021/10/10 01:39:17;;;;;;;;;;;;;;;20.82;59.34;102783.34;2082504;28;792;-59
2021/10/10 01:40:18;;;;;;;;;;;;;;;20.78;59.29;102779.75;2082920;28;932;-59
2021/10/10 01:41:18;;;;;;;;;;;;;;;20.76;59.63;102776.13;2083035;28;965;-59
2021/10/10 01:42:18;;;;;;;;;;;;;;;20.76;58.46;102778.81;2083011;28;815;-59
2021/10/10 01:43:18;;;;;;;;;;;;;;;20.74;59.10;102778.84;2083001;28;930;-59
2021/10/10 01:44:18;;;;;;;;;;;;;;;20.76;59.81;102778.81;2083001;28;839;-59
2021/10/10 01:45:21;;;;;;;;;;;;;;;20.73;60.10;102768.06;2083015;28;866;-59
2021/10/10 01:46:21;;;;;;;;;;;;;;;20.75;59.26;102771.63;2083023;28;811;-59
2021/10/10 01:47:21;;;;;;;;;;;;;;;20.73;59.25;102771.66;2082970;28;1028;-59
2021/10/10 01:48:21;;;;;;;;;;;;;;;20.73;58.78;102768.97;2082829;28;756;-59
2021/10/10 01:49:21;;;;;;;;;;;;;;;20.78;59.06;102771.66;2082928;28;992;-59
2021/10/10 01:50:22;;;;;;;;;;;;;;;20.77;58.55;102772.56;2082976;28;1005;-59
2021/10/10 01:51:22;;;;;;;;;;;;;;;20.75;59.02;102768.94;2082839;28;919;-59
2021/10/10 01:52:22;;;;;;;;;;;;;;;20.78;58.56;102768.09;2082953;28;1040;-59
2021/10/10 01:53:22;;;;;;;;;;;;;;;20.76;59.21;102764.47;2082838;28;1898;-59
2021/10/10 01:54:22;;;;;;;;;;;;;;;20.74;58.80;102767.16;2083043;28;808;-59
2021/10/10 01:55:23;;;;;;;;;;;;;;;20.78;59.99;102762.69;2083848;28;851;-59
2021/10/10 01:56:23;;;;;;;;;;;;;;;20.78;59.03;102762.69;2084471;28;894;-59
2021/10/10 01:57:23;;;;;;;;;;;;;;;20.76;59.22;102756.38;2084458;28;1021;-60
2021/10/10 01:58:23;;;;;;;;;;;;;;;20.77;59.13;102760.88;2084501;28;842;-59
2021/10/10 01:59:23;;;;;;;;;;;;;;;20.76;59.23;102759.09;2084488;28;1017;-59
2021/10/10 02:00:24;;;;;;;;;;;;;;;20.76;60.04;102762.66;2084507;28;831;-59
2021/10/10 02:01:24;;;;;;;;;;;;;;;20.77;59.21;102760.88;2084400;28;855;-59
2021/10/10 02:02:24;;;;;;;;;;;;;;;20.74;58.49;102759.06;2084480;28;776;-59
2021/10/10 02:03:24;;;;;;;;;;;;;;;20.76;59.07;102753.69;2084405;28;779;-59
2021/10/10 02:04:24;;;;;;;;;;;;;;;20.78;58.56;102754.63;2084418;28;973;-59
2021/10/10 02:05:24;;;;;;;;;;;;;;;20.72;59.38;102759.09;2084351;28;966;-60
2021/10/10 02:06:25;;;;;;;;;;;;;;;20.80;58.47;102755.50;2084311;28;1005;-59
2021/10/10 02:07:25;;;;;;;;;;;;;;;20.78;58.57;102752.81;2084362;28;982;-59
2021/10/10 02:08:25;;;;;;;;;;;;;;;20.74;58.59;102749.22;2084445;28;682;-59
2021/10/10 02:09:25;;;;;;;;;;;;;;;20.76;59.01;102754.56;2083839;28;1170;-60
2021/10/10 02:10:25;;;;;;;;;;;;;;;20.75;59.37;102750.09;2084390;28;851;-59
2021/10/10 02:11:25;;;;;;;;;;;;;;;20.75;58.81;102758.16;2084288;28;962;-59
2021/10/10 02:12:26;;;;;;;;;;;;;;;20.77;58.38;102756.41;2084252;28;780;-59
2021/10/10 02:13:26;;;;;;;;;;;;;;;20.78;59.21;102757.31;2084300;28;1918;-59
2021/10/10 02:14:26;;;;;;;;;;;;;;;20.74;59.08;102756.38;2084319;28;973;-60
2021/10/10 02:15:26;;;;;;;;;;;;;;;20.76;59.33;102759.97;2084301;28;1012;-59
2021/10/10 02:16:26;;;;;;;;;;;;;;;20.78;59.21;102762.69;2084408;28;847;-59
2021/10/10 02:17:26;;;;;;;;;;;;;;;20.76;58.75;102754.56;2084159;28;818;-59
2021/10/10 02:18:27;;;;;;;;;;;;;;;20.80;58.31;102760.91;2084328;28;828;-59
2021/10/10 02:19:27;;;;;;;;;;;;;;;20.80;58.50;102761.78;2084314;28;1207;-59
2021/10/10 02:20:27;;;;;;;;;;;;;;;20.82;58.67;102751.88;2083398;28;1013;-59
2021/10/10 02:21:27;;;;;;;;;;;;;;;20.78;59.08;102760.88;2083780;28;981;-60
2021/10/10 02:22:27;;;;;;;;;;;;;;;20.80;58.51;102758.19;2083564;28;714;-59
2021/10/10 02:23:27;;;;;;;;;;;;;;;20.79;58.59;102754.59;2083669;28;838;-60
2021/10/10 02:24:27;;;;;;;;;;;;;;;20.77;58.47;102750.09;2083579;28;1567;-59
2021/10/10 02:25:31;;;;;;;;;;;;;;;20.82;58.21;102749.19;2083732;28;973;-59
2021/10/10 02:26:31;;;;;;;;;;;;;;;20.81;58.82;102750.09;2084325;28;882;-59
2021/10/10 02:27:31;;;;;;;;;;;;;;;20.79;58.52;102743.81;2084293;28;1008;-59
2021/10/10 02:28:31;;;;;;;;;;;;;;;20.76;59.12;102748.31;2084223;28;819;-59
2021/10/10 02:29:31;;;;;;;;;;;;;;;20.78;58.93;102749.22;2083560;28;858;-59
2021/10/10 02:30:32;;;;;;;;;;;;;;;20.76;59.18;102749.19;2083478;28;1012;-59
2021/10/10 02:31:32;;;;;;;;;;;;;;;20.78;58.70;102751.94;2084248;28;1295;-59
2021/10/10 02:32:32;;;;;;;;;;;;;;;20.76;59.44;102748.31;2084228;28;1036;-60
2021/10/10 02:33:32;;;;;;;;;;;;;;;20.77;58.52;102750.09;2084074;28;1898;-59
2021/10/10 02:34:32;;;;;;;;;;;;;;;20.75;58.75;102750.09;2084248;28;867;-59
2021/10/10 02:35:33;;;;;;;;;;;;;;;20.79;58.47;102749.22;2084158;28;1078;-59
2021/10/10 02:36:33;;;;;;;;;;;;;;;20.80;58.49;102744.72;2084125;28;1452;-60
2021/10/10 02:37:33;;;;;;;;;;;;;;;20.76;58.94;102756.38;2084078;28;969;-59
2021/10/10 02:38:33;;;;;;;;;;;;;;;20.77;58.92;102750.09;2084025;28;790;-59
2021/10/10 02:39:34;;;;;;;;;;;;;;;20.78;59.17;102746.53;2084154;28;969;-59
2021/10/10 02:40:34;;;;;;;;;;;;;;;20.78;58.43;102747.41;2084145;28;990;-59
2021/10/10 02:41:34;;;;;;;;;;;;;;;20.78;58.80;102747.41;2083902;28;768;-59
2021/10/10 02:42:34;;;;;;;;;;;;;;;20.77;58.01;102742.94;2084092;28;834;-59
2021/10/10 02:43:35;;;;;;;;;;;;;;;20.77;58.62;102739.31;2084067;28;852;-59
2021/10/10 02:44:35;;;;;;;;;;;;;;;20.80;58.45;102739.34;2084050;28;1025;-59
2021/10/10 02:45:36;;;;;;;;;;;;;;;20.77;58.38;102739.31;2084027;28;937;-59
2021/10/10 02:46:37;;;;;;;;;;;;;;;20.80;58.41;102733.97;2084151;28;744;-59
2021/10/10 02:47:37;;;;;;;;;;;;;;;20.79;58.01;102737.56;2083765;28;756;-59
2021/10/10 02:48:37;;;;;;;;;;;;;;;20.83;58.62;102737.53;2084083;28;1005;-59
2021/10/10 02:49:37;;;;;;;;;;;;;;;20.84;58.23;102731.22;2083969;28;796;-59
2021/10/10 02:50:37;;;;;;;;;;;;;;;20.81;58.53;102731.25;2083989;28;1130;-59
2021/10/10 02:51:37;;;;;;;;;;;;;;;20.80;58.74;102734.84;2084065;28;1279;-59
2021/10/10 02:52:38;;;;;;;;;;;;;;;20.80;58.85;102728.56;2083791;28;1029;-59
2021/10/10 02:53:38;;;;;;;;;;;;;;;20.79;58.29;102726.78;2083997;28;1894;-59
2021/10/10 02:54:38;;;;;;;;;;;;;;;20.78;58.36;102742.03;2084037;28;851;-59
2021/10/10 02:55:38;;;;;;;;;;;;;;;20.79;58.74;102729.47;2084048;28;1075;-59
2021/10/10 02:56:38;;;;;;;;;;;;;;;20.79;58.37;102727.66;2083939;28;961;-59
2021/10/10 02:57:38;;;;;;;;;;;;;;;20.83;58.33;102734.84;2083967;28;962;-59
2021/10/10 02:58:40;;;;;;;;;;;;;;;20.81;58.03;102724.97;2083798;28;704;-59
2021/10/10 02:59:40;;;;;;;;;;;;;;;20.82;57.97;102724.06;2084028;28;906;-59
2021/10/10 03:00:41;;;;;;;;;;;;;;;20.79;58.72;102722.28;2083851;28;965;-59
2021/10/10 03:01:41;;;;;;;;;;;;;;;20.79;59.02;102727.66;2083684;28;1101;-59
2021/10/10 03:02:41;;;;;;;;;;;;;;;20.78;58.66;102723.19;2083999;28;681;-59
2021/10/10 03:03:41;;;;;;;;;;;;;;;20.76;58.85;102719.56;2083949;28;979;-59
2021/10/10 03:04:41;;;;;;;;;;;;;;;20.80;58.11;102724.06;2083931;28;1032;-59
2021/10/10 03:05:41;;;;;;;;;;;;;;;20.77;58.91;102718.69;2083861;28;977;-59
2021/10/10 03:06:41;;;;;;;;;;;;;;;20.76;58.85;102714.19;2083003;28;981;-60
2021/10/10 03:07:42;;;;;;;;;;;;;;;20.79;58.60;102726.78;2083737;28;799;-59
2021/10/10 03:08:42;;;;;;;;;;;;;;;20.72;58.99;102715.09;2083880;28;970;-59
2021/10/10 03:09:42;;;;;;;;;;;;;;;20.77;59.29;102720.47;2083714;28;1242;-59
2021/10/10 03:10:42;;;;;;;;;;;;;;;20.76;58.21;102710.59;2083864;28;1220;-59
2021/10/10 03:11:42;;;;;;;;;;;;;;;20.70;58.95;102712.41;2083711;28;974;-59
2021/10/10 03:12:42;;;;;;;;;;;;;;;20.68;58.86;102702.53;2083917;28;870;-59
2021/10/10 03:13:42;;;;;;;;;;;;;;;20.63;59.59;102704.34;2083692;28;1973;-60
2021/10/10 03:14:43;;;;;;;;;;;;;;;20.66;59.08;102701.66;2083693;28;977;-59
2021/10/10 03:15:43;;;;;;;;;;;;;;;20.66;58.76;102705.25;2083796;28;791;-60
2021/10/10 03:16:43;;;;;;;;;;;;;;;20.66;59.68;102705.25;2083837;28;854;-59
2021/10/10 03:17:43;;;;;;;;;;;;;;;20.61;59.81;102706.19;2083491;28;1190;-59
2021/10/10 03:18:43;;;;;;;;;;;;;;;20.61;59.72;102700.81;2083823;28;911;-59
2021/10/10 03:19:43;;;;;;;;;;;;;;;20.64;59.79;102700.75;2083765;28;974;-60
2021/10/10 03:20:43;;;;;;;;;;;;;;;20.63;59.79;102696.28;2083599;28;792;-59
2021/10/10 03:21:44;;;;;;;;;;;;;;;20.57;60.30;102695.44;2083751;28;852;-59
2021/10/10 03:22:44;;;;;;;;;;;;;;;20.53;59.90;102696.34;2083783;28;958;-60
2021/10/10 03:23:44;;;;;;;;;;;;;;;20.56;60.47;102688.25;2083552;28;847;-59
2021/10/10 03:24:44;;;;;;;;;;;;;;;20.52;60.99;102694.56;2083817;28;903;-60
2021/10/10 03:25:44;;;;;;;;;;;;;;;20.59;59.59;102685.56;2083758;28;1185;-59
2021/10/10 03:26:44;;;;;;;;;;;;;;;20.53;60.51;102687.34;2083784;28;1022;-59
2021/10/10 03:27:44;;;;;;;;;;;;;;;20.62;59.37;102686.41;2083795;28;765;-59
2021/10/10 03:28:45;;;;;;;;;;;;;;;20.59;59.82;102681.94;2083707;28;977;-60
2021/10/10 03:29:45;;;;;;;;;;;;;;;20.57;59.67;102681.97;2083737;28;1024;-59
2021/10/10 03:30:45;;;;;;;;;;;;;;;20.55;59.48;102686.47;2083652;28;675;-60
2021/10/10 03:31:46;;;;;;;;;;;;;;;20.58;59.67;102682.84;2083670;28;782;-59
2021/10/10 03:32:46;;;;;;;;;;;;;;;20.52;60.21;102675.69;2083717;28;988;-60
2021/10/10 03:33:46;;;;;;;;;;;;;;;20.60;59.36;102675.66;2083392;28;1946;-59
2021/10/10 03:34:46;;;;;;;;;;;;;;;20.61;60.20;102679.25;2083637;28;625;-60
2021/10/10 03:35:46;;;;;;;;;;;;;;;20.55;59.82;102674.78;2083675;28;898;-59
2021/10/10 03:36:46;;;;;;;;;;;;;;;20.61;60.04;102679.25;2083479;28;1217;-59
2021/10/10 03:37:46;;;;;;;;;;;;;;;20.57;60.55;102670.28;2083622;28;831;-59
2021/10/10 03:38:47;;;;;;;;;;;;;;;20.51;60.46;102668.53;2083683;28;985;-59
2021/10/10 03:39:47;;;;;;;;;;;;;;;20.58;59.55;102675.69;2083373;28;878;-59
2021/10/10 03:40:47;;;;;;;;;;;;;;;20.57;60.14;102667.59;2083725;28;1033;-60
2021/10/10 03:41:47;;;;;;;;;;;;;;;20.54;60.20;102662.22;2083671;28;803;-60
2021/10/10 03:42:47;;;;;;;;;;;;;;;20.58;60.63;102666.69;2083651;28;843;-59
2021/10/10 03:43:47;;;;;;;;;;;;;;;20.56;59.62;102666.72;2083585;28;1123;-59
2021/10/10 03:44:48;;;;;;;;;;;;;;;20.55;60.37;102670.31;2083630;28;776;-59
2021/10/10 03:45:48;;;;;;;;;;;;;;;20.50;60.82;102663.13;2083572;28;973;-60
2021/10/10 03:46:48;;;;;;;;;;;;;;;20.46;60.38;102670.34;2083611;28;904;-60
2021/10/10 03:47:48;;;;;;;;;;;;;;;20.51;59.59;102657.75;2083326;28;863;-60
2021/10/10 03:48:49;;;;;;;;;;;;;;;20.52;60.86;102662.25;2082939;28;1016;-60
2021/10/10 03:49:49;;;;;;;;;;;;;;;20.52;60.53;102658.63;2083035;28;985;-60
2021/10/10 03:50:50;;;;;;;;;;;;;;;20.51;60.87;102654.16;2083478;28;970;-60
2021/10/10 03:51:50;;;;;;;;;;;;;;;20.50;61.24;102657.75;2083550;28;745;-60
2021/10/10 03:52:51;;;;;;;;;;;;;;;20.54;60.37;102659.53;2083362;28;791;-60
2021/10/10 03:54:21;;;;;;;;;;;;;;;20.52;60.60;102658.63;2083286;28;1956;-60
2021/10/10 03:55:33;;;;;;;;;;;;;;;20.49;60.76;102655.97;2083480;28;1489;-60
2021/10/10 03:56:33;;;;;;;;;;;;;;;20.47;60.89;102658.69;2083505;28;877;-60
2021/10/10 03:57:33;;;;;;;;;;;;;;;20.44;61.86;102659.56;2083482;28;1016;-60
2021/10/10 03:58:37;;;;;;;;;;;;;;;20.50;60.31;102655.06;2083601;28;966;-60
2021/10/10 03:59:37;;;;;;;;;;;;;;;20.52;60.26;102651.47;2083514;28;815;-60
2021/10/10 04:00:38;;;;;;;;;;;;;;;20.51;61.26;102648.78;2083576;28;819;-60
2021/10/10 04:01:39;;;;;;;;;;;;;;;20.50;60.70;102650.59;2082681;28;804;-60
2021/10/10 04:02:41;;;;;;;;;;;;;;;20.53;60.22;102650.56;2082954;28;878;-59
2021/10/10 04:03:41;;;;;;;;;;;;;;;21.01;60.61;102646.75;2083462;28;866;-59
2021/10/10 04:04:41;;;;;;;;;;;;;;;21.58;58.97;102642.69;2083503;28;827;-58
2021/10/10 04:05:43;;;;;;;;;;;;;;;21.73;56.82;102642.59;2083540;28;938;-58
2021/10/10 04:06:43;;;;;;;;;;;;;;;21.83;56.10;102647.84;2083612;28;1017;-58
2021/10/10 04:07:43;;;;;;;;;;;;;;;21.92;56.50;102643.28;2083521;28;834;-58
2021/10/10 04:08:44;;;;;;;;;;;;;;;21.94;57.13;102639.69;2083484;28;942;-59
2021/10/10 04:09:44;;;;;;;;;;;;;;;21.99;57.03;102644.09;2083076;28;1126;-59
2021/10/10 04:10:44;;;;;;;;;;;;;;;22.01;56.50;102642.28;2083502;28;970;-59
2021/10/10 04:11:44;;;;;;;;;;;;;;;22.04;56.64;102644.94;2083412;28;894;-59
2021/10/10 04:12:45;;;;;;;;;;;;;;;22.08;55.79;102640.38;2083477;28;886;-58
2021/10/10 04:13:45;;;;;;;;;;;;;;;22.15;55.72;102642.09;2083324;28;1906;-58
2021/10/10 04:14:45;;;;;;;;;;;;;;;22.16;56.04;102643.03;2083092;28;1033;-58
2021/10/10 04:15:45;;;;;;;;;;;;;;;22.18;55.87;102638.50;2083380;28;810;-58
2021/10/10 04:16:45;;;;;;;;;;;;;;;22.18;56.46;102633.09;2083459;28;961;-58
2021/10/10 04:17:46;;;;;;;;;;;;;;;22.20;55.94;102626.75;2083205;28;985;-58
2021/10/10 04:18:46;;;;;;;;;;;;;;;22.24;55.59;102627.63;2083437;28;774;-58
2021/10/10 04:19:46;;;;;;;;;;;;;;;22.25;55.60;102626.72;2083220;28;973;-58
2021/10/10 04:20:46;;;;;;;;;;;;;;;22.27;54.90;102627.59;2083206;28;965;-58
2021/10/10 04:21:46;;;;;;;;;;;;;;;22.27;55.89;102626.69;2083346;28;1043;-58
2021/10/10 04:22:47;;;;;;;;;;;;;;;22.31;54.95;102629.34;2083247;28;1024;-58
2021/10/10 04:23:47;;;;;;;;;;;;;;;22.29;55.27;102623.06;2083398;28;848;-58
2021/10/10 04:24:47;;;;;;;;;;;;;;;22.32;54.64;102624.81;2083396;28;894;-59
2021/10/10 04:25:47;;;;;;;;;;;;;;;22.31;55.58;102623.94;2083271;28;798;-58
2021/10/10 04:26:47;;;;;;;;;;;;;;;22.31;54.79;102626.63;2083388;28;1011;-58
2021/10/10 04:27:48;;;;;;;;;;;;;;;22.29;55.87;102620.38;2083278;28;759;-58
2021/10/10 04:28:48;;;;;;;;;;;;;;;22.30;55.28;102623.94;2083315;28;760;-58
2021/10/10 04:29:48;;;;;;;;;;;;;;;22.32;55.48;102619.41;2083269;28;1012;-58
2021/10/10 04:30:48;;;;;;;;;;;;;;;22.32;55.01;102620.34;2083167;28;1028;-58
2021/10/10 04:31:48;;;;;;;;;;;;;;;22.33;55.38;102616.72;2083322;28;764;-58
2021/10/10 04:32:49;;;;;;;;;;;;;;;22.33;55.09;102613.09;2083280;28;795;-58
2021/10/10 04:33:49;;;;;;;;;;;;;;;22.34;54.61;102613.09;2083147;28;2019;-58
2021/10/10 04:34:49;;;;;;;;;;;;;;;22.33;55.29;102614.03;2083326;28;906;-58
2021/10/10 04:35:49;;;;;;;;;;;;;;;22.32;56.35;102614.94;2083181;28;961;-58
2021/10/10 04:36:49;;;;;;;;;;;;;;;22.32;55.82;102614.94;2083215;28;1510;-58
2021/10/10 04:37:49;;;;;;;;;;;;;;;22.34;55.23;102610.41;2083218;28;934;-59
2021/10/10 04:38:49;;;;;;;;;;;;;;;22.34;55.28;102613.09;2083100;28;958;-59
2021/10/10 04:39:50;;;;;;;;;;;;;;;22.33;54.77;102611.31;2083231;28;966;-59
2021/10/10 04:40:50;;;;;;;;;;;;;;;22.36;56.54;102610.38;2083219;28;746;-58
2021/10/10 04:41:50;;;;;;;;;;;;;;;22.33;56.78;102605.00;2083319;28;772;-59
2021/10/10 04:42:50;;;;;;;;;;;;;;;22.35;55.96;102609.50;2083211;28;835;-58
2021/10/10 04:43:50;;;;;;;;;;;;;;;22.32;55.79;102609.53;2083010;28;958;-58
2021/10/10 04:44:51;;;;;;;;;;;;;;;22.35;55.73;102603.19;2083192;28;1017;-58
2021/10/10 04:45:51;;;;;;;;;;;;;;;22.35;56.05;102606.78;2082611;28;1152;-59
2021/10/10 04:46:51;;;;;;;;;;;;;;;22.35;55.74;102604.09;2082381;28;839;-58
2021/10/10 04:47:51;;;;;;;;;;;;;;;22.34;55.77;102602.31;2083183;28;788;-59
2021/10/10 04:48:52;;;;;;;;;;;;;;;22.33;55.34;102605.91;2083294;28;839;-58
2021/10/10 04:49:52;;;;;;;;;;;;;;;22.36;55.73;102604.97;2083093;28;815;-59
2021/10/10 04:50:52;;;;;;;;;;;;;;;22.35;56.01;102604.09;2083212;28;766;-59
2021/10/10 04:51:52;;;;;;;;;;;;;;;22.34;55.52;102596.91;2083161;28;1095;-59
2021/10/10 04:52:52;;;;;;;;;;;;;;;22.33;56.65;102599.59;2083211;28;1018;-59
2021/10/10 04:53:52;;;;;;;;;;;;;;;22.35;55.93;102590.59;2083078;28;1906;-59
2021/10/10 04:54:53;;;;;;;;;;;;;;;22.35;56.02;102597.78;2082825;28;985;-59
2021/10/10 04:55:53;;;;;;;;;;;;;;;22.35;56.34;102589.69;2083122;28;974;-59
2021/10/10 04:56:53;;;;;;;;;;;;;;;22.38;55.77;102583.34;2083146;28;970;-59
2021/10/10 04:57:53;;;;;;;;;;;;;;;22.38;56.48;102586.03;2083136;28;831;-59
2021/10/10 04:58:53;;;;;;;;;;;;;;;22.38;55.36;102584.25;2083165;28;1017;-59
2021/10/10 04:59:53;;;;;;;;;;;;;;;22.37;55.33;102577.06;2082927;28;780;-59
2021/10/10 05:00:53;;;;;;;;;;;;;;;22.39;56.61;102577.94;2083212;28;848;-59
2021/10/10 05:01:54;;;;;;;;;;;;;;;22.40;55.61;102578.81;2083116;28;986;-59
2021/10/10 05:02:54;;;;;;;;;;;;;;;22.40;56.96;102577.03;2082903;28;683;-59
2021/10/10 05:03:54;;;;;;;;;;;;;;;22.40;55.82;102579.72;2083066;28;791;-59
2021/10/10 05:04:54;;;;;;;;;;;;;;;22.40;55.67;102577.03;2083013;28;1553;-59
2021/10/10 05:05:54;;;;;;;;;;;;;;;22.41;55.91;102576.09;2082986;28;1017;-59
2021/10/10 05:06:54;;;;;;;;;;;;;;;22.42;56.14;102571.56;2083232;28;800;-59
2021/10/10 05:07:55;;;;;;;;;;;;;;;22.44;55.38;102570.69;2083032;28;754;-59
2021/10/10 05:08:55;;;;;;;;;;;;;;;22.44;56.09;102576.09;2082794;28;887;-59
2021/10/10 05:09:55;;;;;;;;;;;;;;;22.46;56.05;102574.28;2082835;28;1370;-59
2021/10/10 05:10:55;;;;;;;;;;;;;;;22.43;56.57;102571.56;2083094;28;1299;-60
2021/10/10 05:11:55;;;;;;;;;;;;;;;22.46;56.47;102567.97;2082938;28;1362;-59
2021/10/10 05:12:55;;;;;;;;;;;;;;;22.45;56.29;102571.56;2083084;28;930;-59
2021/10/10 05:13:56;;;;;;;;;;;;;;;22.46;56.29;102573.34;2082913;28;1911;-59
2021/10/10 05:14:56;;;;;;;;;;;;;;;22.44;56.43;102562.59;2083172;28;792;-60
2021/10/10 05:15:56;;;;;;;;;;;;;;;22.46;56.09;102573.34;2082402;28;847;-59
2021/10/10 05:16:57;;;;;;;;;;;;;;;22.47;56.22;102565.25;2074339;28;1405;-59